Time;durP1;ratioP1;P1;durP2;ratioP2;P2;SDS_P1;SDS_P2;PMS_P1;PMS_P2;Temp;Humidity;BMP_temperature;BMP_pressure;BME280_temperature;BME280_humidity;BME280_pressure;Samples;Min_cycle;Max_cycle;Signal;HPM_P1;HPM_P2
2022/05/08 00:00:25;;;;;;;;;;;;;;;;;;5033733;28;1918;-74
2022/05/08 00:02:54;;;;;;;;;;;;;;;;;;5033776;28;1328;-73
2022/05/08 00:05:22;;;;;;;;;;;;;;;;;;5033820;28;1071;-75
2022/05/08 00:07:48;;;;;;;;;;;;;;;;;;5033619;28;1150;-74
2022/05/08 00:10:14;;;;;;;;;;;;;;;;;;5033571;28;1008;-74
2022/05/08 00:12:41;;;;;;;;;;;;;;;;;;5033603;28;1281;-74
2022/05/08 00:15:09;;;;;;;;;;;;;;;;;;5032340;28;842;-74
2022/05/08 00:17:35;;;;;;;;;;;;;;;;;;5033440;28;1088;-75
2022/05/08 00:20:01;;;;;;;;;;;;;;;;;;5033154;28;1970;-74
2022/05/08 00:22:29;;;;;;;;;;;;;;;;;;5032086;28;1321;-75
2022/05/08 00:24:56;;;;;;;;;;;;;;;;;;5033137;28;905;-74
2022/05/08 00:27:22;;;;;;;;;;;;;;;;;;5033247;28;961;-75
2022/05/08 00:29:48;;;;;;;;;;;;;;;;;;5033275;28;1071;-74
2022/05/08 00:32:14;;;;;;;;;;;;;;;;;;5033237;28;1313;-74
2022/05/08 00:34:41;;;;;;;;;;;;;;;;;;5032414;28;1258;-74
2022/05/08 00:37:07;;;;;;;;;;;;;;;;;;5032646;28;945;-73
2022/05/08 00:39:37;;;;;;;;;;;;;;;;;;5032045;28;787;-73
2022/05/08 00:42:03;;;;;;;;;;;;;;;;;;5032763;28;1980;-73
2022/05/08 00:44:30;;;;;;;;;;;;;;;;;;5031960;28;1333;-73
2022/05/08 00:46:56;;;;;;;;;;;;;;;;;;5031550;28;1139;-73
2022/05/08 00:49:22;;;;;;;;;;;;;;;;;;5032939;28;854;-73
2022/05/08 00:51:49;;;;;;;;;;;;;;;;;;5031474;28;1337;-73
2022/05/08 00:54:15;;;;;;;;;;;;;;;;;;5032543;28;988;-73
2022/05/08 00:56:42;;;;;;;;;;;;;;;;;;5032642;28;1068;-72
2022/05/08 00:59:09;;;;;;;;;;;;;;;;;;5032937;28;807;-73
2022/05/08 01:01:35;;;;;;;;;;;;;;;;;;5032748;28;1973;-73
2022/05/08 01:04:01;;;;;;;;;;;;;;;;;;5032272;28;1344;-73
2022/05/08 01:06:27;;;;;;;;;;;;;;;;;;5031987;28;1005;-73
2022/05/08 01:08:54;;;;;;;;;;;;;;;;;;5032512;28;1075;-73
2022/05/08 01:11:21;;;;;;;;;;;;;;;;;;5032353;28;603;-74
2022/05/08 01:13:48;;;;;;;;;;;;;;;;;;5031770;28;1401;-74
2022/05/08 01:16:15;;;;;;;;;;;;;;;;;;5032357;28;1067;-73
2022/05/08 01:18:41;;;;;;;;;;;;;;;;;;5032431;28;1067;-74
2022/05/08 01:21:09;;;;;;;;;;;;;;;;;;5032252;28;1914;-73
2022/05/08 01:23:36;;;;;;;;;;;;;;;;;;5032072;28;1342;-74
2022/05/08 01:26:02;;;;;;;;;;;;;;;;;;5032257;28;1122;-73
2022/05/08 01:28:29;;;;;;;;;;;;;;;;;;5030485;28;1099;-73
2022/05/08 01:30:55;;;;;;;;;;;;;;;;;;5032219;28;708;-73
2022/05/08 01:33:22;;;;;;;;;;;;;;;;;;5031884;28;1394;-73
2022/05/08 01:35:49;;;;;;;;;;;;;;;;;;5032119;28;1123;-74
2022/05/08 01:38:16;;;;;;;;;;;;;;;;;;5032070;28;838;-73
2022/05/08 01:40:44;;;;;;;;;;;;;;;;;;5030738;28;1918;-73
2022/05/08 01:43:11;;;;;;;;;;;;;;;;;;5031394;28;1322;-73
2022/05/08 01:45:37;;;;;;;;;;;;;;;;;;5032003;28;777;-73
2022/05/08 01:50:48;;;;;;;;;;;;;;;;;;5031925;28;977;-74
2022/05/08 01:53:14;;;;;;;;;;;;;;;;;;5031664;28;1351;-74
2022/05/08 01:55:40;;;;;;;;;;;;;;;;;;5031925;28;1059;-73
2022/05/08 01:58:08;;;;;;;;;;;;;;;;;;5030181;28;1287;-73
2022/05/08 02:00:34;;;;;;;;;;;;;;;;;;5031661;28;1979;-73
2022/05/08 02:03:01;;;;;;;;;;;;;;;;;;5029931;28;1471;-73
2022/05/08 02:05:28;;;;;;;;;;;;;;;;;;5029890;28;1147;-72
2022/05/08 02:07:54;;;;;;;;;;;;;;;;;;5031162;28;1068;-73
2022/05/08 02:10:21;;;;;;;;;;;;;;;;;;5030300;28;1577;-72
2022/05/08 02:12:47;;;;;;;;;;;;;;;;;;5031201;28;1309;-74
2022/05/08 02:15:15;;;;;;;;;;;;;;;;;;5031347;28;850;-73
2022/05/08 02:17:41;;;;;;;;;;;;;;;;;;5030070;28;791;-72
2022/05/08 02:20:08;;;;;;;;;;;;;;;;;;5031109;28;1072;-74
2022/05/08 02:22:35;;;;;;;;;;;;;;;;;;5031047;28;1922;-73
2022/05/08 02:25:01;;;;;;;;;;;;;;;;;;5031101;28;984;-73
2022/05/08 02:27:29;;;;;;;;;;;;;;;;;;5031013;28;1068;-73
2022/05/08 02:29:55;;;;;;;;;;;;;;;;;;5030917;28;1331;-72
2022/05/08 02:32:25;;;;;;;;;;;;;;;;;;5029758;28;1406;-73
2022/05/08 02:34:51;;;;;;;;;;;;;;;;;;5029427;28;1412;-73
2022/05/08 02:37:17;;;;;;;;;;;;;;;;;;5031042;28;934;-73
2022/05/08 02:39:44;;;;;;;;;;;;;;;;;;5031017;28;1135;-73
2022/05/08 02:42:12;;;;;;;;;;;;;;;;;;5030200;28;1914;-73
2022/05/08 02:44:38;;;;;;;;;;;;;;;;;;5030876;28;858;-75
2022/05/08 02:47:04;;;;;;;;;;;;;;;;;;5030414;28;997;-73
2022/05/08 02:49:32;;;;;;;;;;;;;;;;;;5029544;28;1390;-72
2022/05/08 02:51:58;;;;;;;;;;;;;;;;;;5030594;28;1310;-73
2022/05/08 02:54:24;;;;;;;;;;;;;;;;;;5031126;28;1048;-73
2022/05/08 02:59:34;;;;;;;;;;;;;;;;;;5030634;28;979;-73
2022/05/08 03:02:01;;;;;;;;;;;;;;;;;;5030433;28;1976;-73
2022/05/08 03:04:27;;;;;;;;;;;;;;;;;;5030628;28;1015;-72
2022/05/08 03:06:55;;;;;;;;;;;;;;;;;;5029863;28;1126;-73
2022/05/08 03:09:21;;;;;;;;;;;;;;;;;;5029307;28;1290;-74
2022/05/08 03:11:47;;;;;;;;;;;;;;;;;;5030416;28;1332;-73
2022/05/08 03:14:14;;;;;;;;;;;;;;;;;;5029315;28;1221;-72
2022/05/08 03:16:41;;;;;;;;;;;;;;;;;;5030278;28;692;-73
2022/05/08 03:19:07;;;;;;;;;;;;;;;;;;5028935;28;1293;-73
2022/05/08 03:21:34;;;;;;;;;;;;;;;;;;5030140;28;1972;-72
2022/05/08 03:24:02;;;;;;;;;;;;;;;;;;5030291;28;1067;-73
2022/05/08 03:26:31;;;;;;;;;;;;;;;;;;5030274;28;889;-73
2022/05/08 03:28:57;;;;;;;;;;;;;;;;;;5034526;28;914;-73
2022/05/08 03:31:23;;;;;;;;;;;;;;;;;;5036849;28;905;-73
2022/05/08 03:33:49;;;;;;;;;;;;;;;;;;5036832;28;1092;-74
2022/05/08 03:36:16;;;;;;;;;;;;;;;;;;5035059;28;1377;-73
2022/05/08 03:38:43;;;;;;;;;;;;;;;;;;5035584;28;1768;-72
2022/05/08 03:41:15;;;;;;;;;;;;;;;;;;5019809;28;1918;-74
2022/05/08 03:43:41;;;;;;;;;;;;;;;;;;5055689;22;3785;-68
2022/05/08 03:46:07;;;;;;;;;;;;;;;;;;5044375;28;1102;-70
2022/05/08 03:48:33;;;;;;;;;;;;;;;;;;5035501;28;897;-70
2022/05/08 03:51:00;;;;;;;;;;;;;;;;;;5036547;28;799;-70
2022/05/08 03:53:27;;;;;;;;;;;;;;;;;;5035482;28;1413;-71
2022/05/08 03:55:53;;;;;;;;;;;;;;;;;;5036548;28;1130;-71
2022/05/08 03:58:20;;;;;;;;;;;;;;;;;;5048007;28;1175;-71
2022/05/08 04:00:46;;;;;;;;;;;;;;;;;;5056398;28;837;-70
2022/05/08 04:03:13;;;;;;;;;;;;;;;;;;5056375;28;1918;-69
2022/05/08 04:05:39;;;;;;;;;;;;;;;;;;5056148;28;1479;-70
2022/05/08 04:08:06;;;;;;;;;;;;;;;;;;5055094;28;1293;-71
2022/05/08 04:10:33;;;;;;;;;;;;;;;;;;5056476;28;1106;-71
2022/05/08 04:12:59;;;;;;;;;;;;;;;;;;5056554;28;1261;-71
2022/05/08 04:18:10;;;;;;;;;;;;;;;;;;5055836;28;924;-71
2022/05/08 04:20:36;;;;;;;;;;;;;;;;;;5056419;28;1130;-70
2022/05/08 04:25:47;;;;;;;;;;;;;;;;;;5056420;28;913;-71
2022/05/08 04:28:13;;;;;;;;;;;;;;;;;;5056015;28;1114;-72
2022/05/08 04:30:41;;;;;;;;;;;;;;;;;;5056318;28;855;-70
2022/05/08 04:33:07;;;;;;;;;;;;;;;;;;5056396;28;1246;-69
2022/05/08 04:35:33;;;;;;;;;;;;;;;;;;5056200;28;1225;-71
2022/05/08 04:37:59;;;;;;;;;;;;;;;;;;5055821;28;846;-71
2022/05/08 04:40:25;;;;;;;;;;;;;;;;;;5053182;28;972;-71
2022/05/08 04:42:51;;;;;;;;;;;;;;;;;;5052583;28;1969;-71
2022/05/08 04:45:18;;;;;;;;;;;;;;;;;;5051595;28;1312;-70
2022/05/08 04:47:45;;;;;;;;;;;;;;;;;;5052696;28;885;-71
2022/05/08 04:50:11;;;;;;;;;;;;;;;;;;5053014;28;1063;-71
2022/05/08 04:52:38;;;;;;;;;;;;;;;;;;5052747;28;1379;-70
2022/05/08 04:55:04;;;;;;;;;;;;;;;;;;5052228;28;1067;-71
2022/05/08 04:57:30;;;;;;;;;;;;;;;;;;5052563;28;1088;-71
2022/05/08 04:59:57;;;;;;;;;;;;;;;;;;5052691;28;941;-72
2022/05/08 05:02:23;;;;;;;;;;;;;;;;;;5052419;28;1914;-71
2022/05/08 05:04:50;;;;;;;;;;;;;;;;;;5052170;28;1127;-71
2022/05/08 05:07:16;;;;;;;;;;;;;;;;;;5052638;28;1063;-71
2022/05/08 05:09:43;;;;;;;;;;;;;;;;;;5051469;28;796;-71
2022/05/08 05:12:10;;;;;;;;;;;;;;;;;;5052495;28;949;-71
2022/05/08 05:14:36;;;;;;;;;;;;;;;;;;5052649;28;1401;-71
2022/05/08 05:17:02;;;;;;;;;;;;;;;;;;5052639;28;1011;-71
2022/05/08 05:19:28;;;;;;;;;;;;;;;;;;5052744;28;1102;-71
2022/05/08 05:21:56;;;;;;;;;;;;;;;;;;5048595;28;1911;-71
2022/05/08 05:24:22;;;;;;;;;;;;;;;;;;5046568;28;1664;-71
2022/05/08 05:26:48;;;;;;;;;;;;;;;;;;5041212;28;1125;-72
2022/05/08 05:29:15;;;;;;;;;;;;;;;;;;5050383;28;1142;-71
2022/05/08 05:31:41;;;;;;;;;;;;;;;;;;5049804;28;1116;-71
2022/05/08 05:34:07;;;;;;;;;;;;;;;;;;5046734;28;1471;-70
2022/05/08 05:36:33;;;;;;;;;;;;;;;;;;5048464;28;1573;-72
2022/05/08 05:39:01;;;;;;;;;;;;;;;;;;5047680;28;1282;-72
2022/05/08 05:41:27;;;;;;;;;;;;;;;;;;5047671;28;1411;-72
2022/05/08 05:43:53;;;;;;;;;;;;;;;;;;5031802;28;1914;-72
2022/05/08 05:49:03;;;;;;;;;;;;;;;;;;5046554;28;1488;-73
2022/05/08 05:51:30;;;;;;;;;;;;;;;;;;5048322;28;1683;-72
2022/05/08 05:53:56;;;;;;;;;;;;;;;;;;5031741;28;1479;-72
2022/05/08 05:56:23;;;;;;;;;;;;;;;;;;5028307;28;1239;-72
2022/05/08 05:58:50;;;;;;;;;;;;;;;;;;5035618;28;1743;-72
2022/05/08 06:01:17;;;;;;;;;;;;;;;;;;5049357;28;1786;-73
2022/05/08 06:03:43;;;;;;;;;;;;;;;;;;5036811;28;1914;-72
2022/05/08 06:06:09;;;;;;;;;;;;;;;;;;5043010;28;1241;-71
2022/05/08 06:08:35;;;;;;;;;;;;;;;;;;5051397;28;925;-72
2022/05/08 06:11:01;;;;;;;;;;;;;;;;;;5051621;28;1056;-72
2022/05/08 06:13:29;;;;;;;;;;;;;;;;;;5050631;28;1514;-72
2022/05/08 06:15:55;;;;;;;;;;;;;;;;;;5049437;28;1861;-72
2022/05/08 06:18:21;;;;;;;;;;;;;;;;;;5031198;28;1079;-73
2022/05/08 06:20:48;;;;;;;;;;;;;;;;;;5031267;28;1060;-72
2022/05/08 06:23:14;;;;;;;;;;;;;;;;;;5031065;28;1914;-72
2022/05/08 06:25:41;;;;;;;;;;;;;;;;;;5036352;28;1760;-72
2022/05/08 06:28:08;;;;;;;;;;;;;;;;;;5047792;28;1153;-72
2022/05/08 06:30:35;;;;;;;;;;;;;;;;;;5043073;28;1862;-72
2022/05/08 06:33:01;;;;;;;;;;;;;;;;;;5042147;28;1450;-72
2022/05/08 06:35:28;;;;;;;;;;;;;;;;;;5050066;28;1771;-73
2022/05/08 06:37:54;;;;;;;;;;;;;;;;;;5048504;28;1532;-73
2022/05/08 06:40:21;;;;;;;;;;;;;;;;;;5042572;28;1220;-72
2022/05/08 06:42:47;;;;;;;;;;;;;;;;;;5050456;28;1918;-73
2022/05/08 06:45:13;;;;;;;;;;;;;;;;;;5046826;28;1864;-74
2022/05/08 06:47:41;;;;;;;;;;;;;;;;;;5048658;28;1791;-73
2022/05/08 06:50:09;;;;;;;;;;;;;;;;;;5031257;28;1236;-73
2022/05/08 06:52:36;;;;;;;;;;;;;;;;;;5030579;28;1353;-72
2022/05/08 06:55:02;;;;;;;;;;;;;;;;;;5030886;28;1060;-73
2022/05/08 06:57:28;;;;;;;;;;;;;;;;;;5038232;28;1791;-73
2022/05/08 07:02:42;;;;;;;;;;;;;;;;;;5048529;28;1922;-73
2022/05/08 07:05:09;;;;;;;;;;;;;;;;;;5039800;28;1162;-71
2022/05/08 07:07:35;;;;;;;;;;;;;;;;;;5030409;28;814;-72
2022/05/08 07:10:01;;;;;;;;;;;;;;;;;;5046224;28;1779;-71
2022/05/08 07:12:27;;;;;;;;;;;;;;;;;;5043775;28;1266;-71
2022/05/08 07:14:54;;;;;;;;;;;;;;;;;;5048645;28;1842;-71
2022/05/08 07:17:21;;;;;;;;;;;;;;;;;;5046748;28;1766;-71
2022/05/08 07:19:49;;;;;;;;;;;;;;;;;;5042150;28;1200;-71
2022/05/08 07:22:15;;;;;;;;;;;;;;;;;;5033949;28;1985;-71
2022/05/08 07:24:42;;;;;;;;;;;;;;;;;;5042573;28;1419;-71
2022/05/08 07:27:10;;;;;;;;;;;;;;;;;;5037844;28;1798;-72
2022/05/08 07:29:37;;;;;;;;;;;;;;;;;;5043549;28;1263;-71
2022/05/08 07:32:03;;;;;;;;;;;;;;;;;;5030009;28;782;-71
2022/05/08 07:37:14;;;;;;;;;;;;;;;;;;5030324;28;576;-71
2022/05/08 07:39:40;;;;;;;;;;;;;;;;;;5041526;28;1822;-70
2022/05/08 07:42:07;;;;;;;;;;;;;;;;;;5046029;28;1796;-69
2022/05/08 07:44:33;;;;;;;;;;;;;;;;;;5047715;28;1918;-70
2022/05/08 07:47:00;;;;;;;;;;;;;;;;;;5046857;28;1521;-69
2022/05/08 07:49:26;;;;;;;;;;;;;;;;;;5041310;28;1113;-70
2022/05/08 07:51:52;;;;;;;;;;;;;;;;;;5049994;28;738;-70
2022/05/08 07:54:20;;;;;;;;;;;;;;;;;;5049344;28;1399;-69
2022/05/08 07:56:46;;;;;;;;;;;;;;;;;;5047410;28;1416;-70
2022/05/08 07:59:14;;;;;;;;;;;;;;;;;;5047070;28;1508;-69
2022/05/08 08:01:41;;;;;;;;;;;;;;;;;;5049668;28;854;-69
2022/05/08 08:04:08;;;;;;;;;;;;;;;;;;5049980;28;2000;-69
2022/05/08 08:06:35;;;;;;;;;;;;;;;;;;5049893;28;1076;-69
2022/05/08 08:09:01;;;;;;;;;;;;;;;;;;5049799;28;1123;-67
2022/05/08 08:11:29;;;;;;;;;;;;;;;;;;5050050;28;802;-70
2022/05/08 08:13:55;;;;;;;;;;;;;;;;;;5049768;28;1359;-70
2022/05/08 08:16:22;;;;;;;;;;;;;;;;;;5052647;28;1079;-69
2022/05/08 08:18:49;;;;;;;;;;;;;;;;;;5052942;28;1068;-70
2022/05/08 08:21:16;;;;;;;;;;;;;;;;;;5052873;28;1432;-70
2022/05/08 08:23:42;;;;;;;;;;;;;;;;;;5053395;28;1914;-69
2022/05/08 08:26:09;;;;;;;;;;;;;;;;;;5053410;28;944;-68
2022/05/08 08:28:36;;;;;;;;;;;;;;;;;;5053403;28;1067;-69
2022/05/08 08:31:02;;;;;;;;;;;;;;;;;;5053160;28;964;-70
2022/05/08 08:33:30;;;;;;;;;;;;;;;;;;5053451;28;1400;-70
2022/05/08 08:35:56;;;;;;;;;;;;;;;;;;5051901;28;1255;-70
2022/05/08 08:38:22;;;;;;;;;;;;;;;;;;5052977;28;775;-70
2022/05/08 08:40:49;;;;;;;;;;;;;;;;;;5051719;28;1244;-69
2022/05/08 08:43:16;;;;;;;;;;;;;;;;;;5051695;28;1917;-70
2022/05/08 08:48:28;;;;;;;;;;;;;;;;;;5051619;28;1213;-70
2022/05/08 08:50:54;;;;;;;;;;;;;;;;;;5052843;28;1066;-70
2022/05/08 08:53:21;;;;;;;;;;;;;;;;;;5051772;28;1569;-70
2022/05/08 08:55:48;;;;;;;;;;;;;;;;;;5044616;28;1414;-69
2022/05/08 08:58:15;;;;;;;;;;;;;;;;;;5050446;28;1482;-70
2022/05/08 09:00:41;;;;;;;;;;;;;;;;;;5052508;28;1765;-69
2022/05/08 09:03:09;;;;;;;;;;;;;;;;;;5032288;28;1910;-70
2022/05/08 09:05:35;;;;;;;;;;;;;;;;;;5033336;28;688;-71
2022/05/08 09:08:01;;;;;;;;;;;;;;;;;;5031359;28;1182;-68
2022/05/08 09:10:35;;;;;;;;;;;;;;;;;;5045106;28;1391;-68
2022/05/08 09:13:03;;;;;;;;;;;;;;;;;;5042434;28;1389;-69
2022/05/08 09:15:30;;;;;;;;;;;;;;;;;;5050913;28;1466;-69
2022/05/08 09:17:56;;;;;;;;;;;;;;;;;;5050489;28;1561;-70
2022/05/08 09:20:26;;;;;;;;;;;;;;;;;;5040970;28;1593;-71
2022/05/08 09:23:09;;;;;;;;;;;;;;;;;;5049426;28;1977;-69
2022/05/08 09:25:48;;;;;;;;;;;;;;;;;;5047654;28;1549;-70
2022/05/08 09:28:15;;;;;;;;;;;;;;;;;;5046906;28;1384;-69
2022/05/08 09:30:52;;;;;;;;;;;;;;;;;;5051625;28;1570;-70
2022/05/08 09:33:22;;;;;;;;;;;;;;;;;;5052275;28;1447;-70
2022/05/08 09:35:51;;;;;;;;;;;;;;;;;;5035462;28;1204;-70
2022/05/08 09:38:17;;;;;;;;;;;;;;;;;;5031682;28;1135;-71
2022/05/08 09:40:45;;;;;;;;;;;;;;;;;;5039426;28;2033;-70
2022/05/08 09:43:36;;;;;;;;;;;;;;;;;;5041795;28;1922;-69
2022/05/08 09:46:02;;;;;;;;;;;;;;;;;;5032711;28;1053;-70
2022/05/08 09:48:29;;;;;;;;;;;;;;;;;;5031641;28;1154;-70
2022/05/08 09:51:00;;;;;;;;;;;;;;;;;;5032139;28;1004;-71
2022/05/08 09:53:27;;;;;;;;;;;;;;;;;;5032561;28;1413;-70
2022/05/08 09:55:53;;;;;;;;;;;;;;;;;;5032076;28;1083;-70
2022/05/08 09:58:19;;;;;;;;;;;;;;;;;;5031411;28;1048;-69
2022/05/08 10:00:46;;;;;;;;;;;;;;;;;;5031771;28;779;-68
2022/05/08 10:03:12;;;;;;;;;;;;;;;;;;5031341;28;1914;-70
2022/05/08 10:05:38;;;;;;;;;;;;;;;;;;5044374;28;1475;-70
2022/05/08 10:08:06;;;;;;;;;;;;;;;;;;5040567;28;1217;-69
2022/05/08 10:16:08;;;;;;;;;;;;;;;;;;5029966;28;1005;-69
2022/05/08 10:18:35;;;;;;;;;;;;;;;;;;5029660;28;1103;-70
2022/05/08 10:21:05;;;;;;;;;;;;;;;;;;5031036;28;850;-70
2022/05/08 10:23:36;;;;;;;;;;;;;;;;;;5031106;28;1972;-70
2022/05/08 10:26:13;;;;;;;;;;;;;;;;;;5038130;28;1491;-70
2022/05/08 10:28:54;;;;;;;;;;;;;;;;;;5050763;28;1015;-69
2022/05/08 10:31:39;;;;;;;;;;;;;;;;;;5051048;28;1136;-70
2022/05/08 10:34:05;;;;;;;;;;;;;;;;;;5051150;28;1342;-71
2022/05/08 10:36:31;;;;;;;;;;;;;;;;;;5050845;28;802;-70
2022/05/08 10:39:12;;;;;;;;;;;;;;;;;;5048767;28;1106;-70
2022/05/08 10:41:47;;;;;;;;;;;;;;;;;;5050578;28;1501;-71
2022/05/08 10:44:31;;;;;;;;;;;;;;;;;;5050793;28;1979;-68
2022/05/08 10:47:12;;;;;;;;;;;;;;;;;;5047800;28;1470;-70
2022/05/08 10:49:39;;;;;;;;;;;;;;;;;;5045991;28;1376;-70
2022/05/08 10:52:08;;;;;;;;;;;;;;;;;;5029576;28;1208;-70
2022/05/08 10:54:34;;;;;;;;;;;;;;;;;;5030505;28;1249;-70
2022/05/08 10:57:02;;;;;;;;;;;;;;;;;;5030564;28;1071;-70
2022/05/08 10:59:43;;;;;;;;;;;;;;;;;;5030684;28;1302;-69
2022/05/08 11:02:09;;;;;;;;;;;;;;;;;;5034110;28;1383;-70
2022/05/08 11:04:47;;;;;;;;;;;;;;;;;;5050057;28;1918;-71
2022/05/08 11:07:14;;;;;;;;;;;;;;;;;;5047869;28;1437;-69
2022/05/08 11:09:41;;;;;;;;;;;;;;;;;;5034939;28;1193;-69
2022/05/08 11:12:08;;;;;;;;;;;;;;;;;;5029224;28;1305;-70
2022/05/08 11:14:35;;;;;;;;;;;;;;;;;;5030335;28;1302;-70
2022/05/08 11:17:13;;;;;;;;;;;;;;;;;;5028891;28;1266;-70
2022/05/08 11:19:50;;;;;;;;;;;;;;;;;;5034750;28;1617;-70
2022/05/08 11:22:16;;;;;;;;;;;;;;;;;;5038611;28;1463;-70
2022/05/08 11:24:45;;;;;;;;;;;;;;;;;;5030265;28;1958;-70
2022/05/08 11:27:13;;;;;;;;;;;;;;;;;;5030197;28;1060;-70
2022/05/08 11:29:39;;;;;;;;;;;;;;;;;;5030241;28;1048;-70
2022/05/08 11:37:58;;;;;;;;;;;;;;;;;;5049118;28;1403;-70
2022/05/08 11:40:24;;;;;;;;;;;;;;;;;;5036608;28;1403;-70
2022/05/08 11:42:52;;;;;;;;;;;;;;;;;;5049083;28;1393;-71
2022/05/08 11:45:21;;;;;;;;;;;;;;;;;;5047846;28;1926;-70
2022/05/08 11:47:49;;;;;;;;;;;;;;;;;;5033674;28;1157;-70
2022/05/08 11:50:16;;;;;;;;;;;;;;;;;;5032940;28;1076;-70
2022/05/08 11:52:43;;;;;;;;;;;;;;;;;;5034151;28;1415;-70
2022/05/08 11:55:09;;;;;;;;;;;;;;;;;;5034368;28;1111;-70
2022/05/08 11:57:42;;;;;;;;;;;;;;;;;;5040385;28;1581;-71
2022/05/08 12:00:10;;;;;;;;;;;;;;;;;;5050105;28;1299;-70
2022/05/08 12:02:46;;;;;;;;;;;;;;;;;;5053241;28;1732;-70
2022/05/08 12:05:19;;;;;;;;;;;;;;;;;;5043918;28;1961;-70
2022/05/08 12:07:45;;;;;;;;;;;;;;;;;;5051654;28;1327;-70
2022/05/08 12:10:12;;;;;;;;;;;;;;;;;;5045247;28;1149;-70
2022/05/08 12:12:39;;;;;;;;;;;;;;;;;;5052054;28;1524;-71
2022/05/08 12:15:19;;;;;;;;;;;;;;;;;;5052948;28;1173;-71
2022/05/08 12:18:00;;;;;;;;;;;;;;;;;;5049210;28;1487;-70
2022/05/08 12:20:27;;;;;;;;;;;;;;;;;;5033222;28;777;-71
2022/05/08 12:22:59;;;;;;;;;;;;;;;;;;5044604;28;1451;-71
2022/05/08 12:25:26;;;;;;;;;;;;;;;;;;5048355;28;1910;-71
2022/05/08 12:27:52;;;;;;;;;;;;;;;;;;5042492;28;1560;-71
2022/05/08 12:30:19;;;;;;;;;;;;;;;;;;5045287;28;1133;-71
2022/05/08 12:32:45;;;;;;;;;;;;;;;;;;5052049;28;1427;-72
2022/05/08 12:35:12;;;;;;;;;;;;;;;;;;5050215;28;1291;-71
2022/05/08 12:37:38;;;;;;;;;;;;;;;;;;5047131;28;1487;-72
2022/05/08 12:40:06;;;;;;;;;;;;;;;;;;5052497;28;1232;-71
2022/05/08 12:42:32;;;;;;;;;;;;;;;;;;5051607;28;1475;-70
2022/05/08 12:44:58;;;;;;;;;;;;;;;;;;5051220;28;1977;-72
2022/05/08 12:47:26;;;;;;;;;;;;;;;;;;5051530;28;1450;-72
2022/05/08 12:49:53;;;;;;;;;;;;;;;;;;5051911;28;1288;-71
2022/05/08 12:52:19;;;;;;;;;;;;;;;;;;5051536;28;1402;-69
2022/05/08 12:54:46;;;;;;;;;;;;;;;;;;5052875;28;1426;-72
2022/05/08 12:59:42;;;;;;;;;;;;;;;;;;5033077;28;1284;-71
2022/05/08 12:59:58;;;;;;;;;;;;;;;;;;5032813;28;980;-69
2022/05/08 13:02:26;;;;;;;;;;;;;;;;;;5032341;28;1420;-71
2022/05/08 13:04:52;;;;;;;;;;;;;;;;;;5033149;28;1919;-72
2022/05/08 13:07:18;;;;;;;;;;;;;;;;;;5032973;28;976;-71
2022/05/08 13:09:45;;;;;;;;;;;;;;;;;;5033140;28;1059;-71
2022/05/08 13:12:12;;;;;;;;;;;;;;;;;;5032920;28;1419;-70
2022/05/08 13:14:38;;;;;;;;;;;;;;;;;;5051553;28;1597;-70
2022/05/08 13:17:05;;;;;;;;;;;;;;;;;;5051146;28;1366;-71
2022/05/08 13:19:33;;;;;;;;;;;;;;;;;;5044460;28;1470;-71
2022/05/08 13:22:00;;;;;;;;;;;;;;;;;;5052458;28;1209;-71
2022/05/08 13:24:26;;;;;;;;;;;;;;;;;;5044049;28;1986;-71
2022/05/08 13:26:55;;;;;;;;;;;;;;;;;;5051301;28;1154;-71
2022/05/08 13:29:22;;;;;;;;;;;;;;;;;;5050618;28;1425;-72
2022/05/08 13:31:48;;;;;;;;;;;;;;;;;;5047884;28;1395;-71
2022/05/08 13:34:15;;;;;;;;;;;;;;;;;;5049318;28;1417;-73
2022/05/08 13:36:42;;;;;;;;;;;;;;;;;;5050658;28;1255;-72
2022/05/08 13:39:08;;;;;;;;;;;;;;;;;;5047398;28;1578;-70
2022/05/08 13:41:35;;;;;;;;;;;;;;;;;;5050309;28;1561;-71
2022/05/08 13:44:02;;;;;;;;;;;;;;;;;;5049884;28;1446;-72
2022/05/08 13:46:28;;;;;;;;;;;;;;;;;;5051892;28;2034;-72
2022/05/08 13:48:55;;;;;;;;;;;;;;;;;;5050900;28;1279;-70
2022/05/08 13:51:21;;;;;;;;;;;;;;;;;;5052084;28;1040;-71
2022/05/08 13:53:48;;;;;;;;;;;;;;;;;;5051986;28;1301;-72
2022/05/08 13:56:15;;;;;;;;;;;;;;;;;;5051646;28;889;-73
2022/05/08 13:58:41;;;;;;;;;;;;;;;;;;5051025;28;1411;-72
2022/05/08 14:01:07;;;;;;;;;;;;;;;;;;5043074;28;1514;-72
2022/05/08 14:03:33;;;;;;;;;;;;;;;;;;5050426;28;1523;-73
2022/05/08 14:05:59;;;;;;;;;;;;;;;;;;5048890;28;1985;-71
2022/05/08 14:08:26;;;;;;;;;;;;;;;;;;5043288;28;1149;-72
2022/05/08 14:10:54;;;;;;;;;;;;;;;;;;5051822;28;1008;-71
2022/05/08 14:13:21;;;;;;;;;;;;;;;;;;5049765;28;1527;-72
2022/05/08 14:15:47;;;;;;;;;;;;;;;;;;5048872;28;1374;-72
2022/05/08 14:18:14;;;;;;;;;;;;;;;;;;5047126;28;1362;-72
2022/05/08 14:20:41;;;;;;;;;;;;;;;;;;5048555;28;1439;-71
2022/05/08 14:23:07;;;;;;;;;;;;;;;;;;5048459;28;1496;-72
2022/05/08 14:25:34;;;;;;;;;;;;;;;;;;5044840;28;1919;-72
2022/05/08 14:28:01;;;;;;;;;;;;;;;;;;5048534;28;1395;-72
2022/05/08 14:30:28;;;;;;;;;;;;;;;;;;5050849;28;1498;-72
2022/05/08 14:38:24;;;;;;;;;;;;;;;;;;5032807;28;2017;-72
2022/05/08 14:40:51;;;;;;;;;;;;;;;;;;5050984;28;1107;-72
2022/05/08 14:43:18;;;;;;;;;;;;;;;;;;5048791;28;1532;-73
2022/05/08 14:45:44;;;;;;;;;;;;;;;;;;5042856;28;1926;-73
2022/05/08 14:48:11;;;;;;;;;;;;;;;;;;5039712;28;1419;-73
2022/05/08 14:50:37;;;;;;;;;;;;;;;;;;5049336;28;1465;-72
2022/05/08 14:53:05;;;;;;;;;;;;;;;;;;5047950;28;1463;-73
2022/05/08 14:55:31;;;;;;;;;;;;;;;;;;5048566;28;2788;-73
2022/05/08 14:57:58;;;;;;;;;;;;;;;;;;5040875;28;1212;-72
2022/05/08 15:00:25;;;;;;;;;;;;;;;;;;5045286;28;1466;-72
2022/05/08 15:02:52;;;;;;;;;;;;;;;;;;5048506;28;1499;-72
2022/05/08 15:05:18;;;;;;;;;;;;;;;;;;5050724;28;1913;-73
2022/05/08 15:07:44;;;;;;;;;;;;;;;;;;5047728;28;1399;-72
2022/05/08 15:10:10;;;;;;;;;;;;;;;;;;5048054;28;1554;-72
2022/05/08 15:12:37;;;;;;;;;;;;;;;;;;5050317;28;1391;-72
2022/05/08 15:15:03;;;;;;;;;;;;;;;;;;5031551;28;1278;-72
2022/05/08 15:17:31;;;;;;;;;;;;;;;;;;5030687;28;952;-72
2022/05/08 15:19:57;;;;;;;;;;;;;;;;;;5030736;28;1080;-72
2022/05/08 15:22:23;;;;;;;;;;;;;;;;;;5030535;28;1317;-69
2022/05/08 15:24:51;;;;;;;;;;;;;;;;;;5030148;28;1918;-71
2022/05/08 15:27:17;;;;;;;;;;;;;;;;;;5030353;28;878;-71
2022/05/08 15:29:43;;;;;;;;;;;;;;;;;;5030283;28;1060;-71
2022/05/08 15:32:09;;;;;;;;;;;;;;;;;;5030639;28;897;-71
2022/05/08 15:34:37;;;;;;;;;;;;;;;;;;5043277;28;1532;-71
2022/05/08 15:37:04;;;;;;;;;;;;;;;;;;5042763;28;1307;-71
2022/05/08 15:39:30;;;;;;;;;;;;;;;;;;5049526;28;1337;-71
2022/05/08 15:41:57;;;;;;;;;;;;;;;;;;5038462;28;2319;-70
2022/05/08 15:44:24;;;;;;;;;;;;;;;;;;5045440;28;1532;-72
2022/05/08 15:46:50;;;;;;;;;;;;;;;;;;5046915;28;1975;-71
2022/05/08 15:49:16;;;;;;;;;;;;;;;;;;5040372;28;1165;-71
2022/05/08 15:51:44;;;;;;;;;;;;;;;;;;5049111;28;1771;-70
2022/05/08 15:54:12;;;;;;;;;;;;;;;;;;5041613;28;1436;-71
2022/05/08 15:56:39;;;;;;;;;;;;;;;;;;5050003;28;1083;-70
2022/05/08 15:59:06;;;;;;;;;;;;;;;;;;5049025;28;1767;-71
2022/05/08 16:01:35;;;;;;;;;;;;;;;;;;5049266;28;1390;-71
2022/05/08 16:04:02;;;;;;;;;;;;;;;;;;5046785;28;1427;-71
2022/05/08 16:06:28;;;;;;;;;;;;;;;;;;5048637;28;1926;-71
2022/05/08 16:08:55;;;;;;;;;;;;;;;;;;5050226;28;662;-71
2022/05/08 16:11:21;;;;;;;;;;;;;;;;;;5048008;28;1359;-71
2022/05/08 16:24:46;;;;;;;;;;;;;;;;;;5047796;28;1460;-71
2022/05/08 16:27:12;;;;;;;;;;;;;;;;;;5048426;28;1930;-70
2022/05/08 16:29:38;;;;;;;;;;;;;;;;;;5050219;28;858;-70
2022/05/08 16:32:05;;;;;;;;;;;;;;;;;;5049979;28;1102;-71
2022/05/08 16:34:32;;;;;;;;;;;;;;;;;;5048993;28;1415;-71
2022/05/08 16:36:58;;;;;;;;;;;;;;;;;;5048133;28;1243;-71
2022/05/08 16:39:24;;;;;;;;;;;;;;;;;;5050892;28;1423;-71
2022/05/08 16:41:51;;;;;;;;;;;;;;;;;;5046416;28;1781;-71
2022/05/08 16:44:20;;;;;;;;;;;;;;;;;;5048756;28;1442;-71
2022/05/08 16:46:46;;;;;;;;;;;;;;;;;;5049788;28;1979;-71
2022/05/08 16:49:12;;;;;;;;;;;;;;;;;;5051288;28;1055;-71
2022/05/08 16:51:39;;;;;;;;;;;;;;;;;;5051453;28;1059;-69
2022/05/08 16:54:05;;;;;;;;;;;;;;;;;;5049378;28;1541;-71
2022/05/08 16:56:31;;;;;;;;;;;;;;;;;;5045775;28;1423;-71
2022/05/08 16:58:59;;;;;;;;;;;;;;;;;;5048585;28;1445;-71
2022/05/08 17:01:27;;;;;;;;;;;;;;;;;;5036578;28;1626;-69
2022/05/08 17:03:56;;;;;;;;;;;;;;;;;;5049012;28;1358;-70
2022/05/08 17:06:22;;;;;;;;;;;;;;;;;;5030996;28;1938;-71
2022/05/08 17:08:49;;;;;;;;;;;;;;;;;;5031182;28;857;-72
2022/05/08 17:11:15;;;;;;;;;;;;;;;;;;5045431;28;1562;-71
2022/05/08 17:13:41;;;;;;;;;;;;;;;;;;5044060;28;1391;-72
2022/05/08 17:16:09;;;;;;;;;;;;;;;;;;5039012;28;1418;-70
2022/05/08 17:18:36;;;;;;;;;;;;;;;;;;5046060;28;1274;-71
2022/05/08 17:21:03;;;;;;;;;;;;;;;;;;5033360;28;1462;-71
2022/05/08 17:23:29;;;;;;;;;;;;;;;;;;5047031;28;1581;-71
2022/05/08 17:25:55;;;;;;;;;;;;;;;;;;5049776;28;1907;-71
2022/05/08 17:31:06;;;;;;;;;;;;;;;;;;5033605;28;1418;-71
2022/05/08 17:33:34;;;;;;;;;;;;;;;;;;5048153;28;1617;-69
2022/05/08 17:36:00;;;;;;;;;;;;;;;;;;5052198;28;1165;-70
2022/05/08 17:38:26;;;;;;;;;;;;;;;;;;5052130;28;1430;-71
2022/05/08 17:40:53;;;;;;;;;;;;;;;;;;5052223;28;803;-71
2022/05/08 17:43:19;;;;;;;;;;;;;;;;;;5050606;28;1282;-71
2022/05/08 17:45:45;;;;;;;;;;;;;;;;;;5051626;28;1914;-70
2022/05/08 17:48:12;;;;;;;;;;;;;;;;;;5051014;28;1088;-71
2022/05/08 17:50:39;;;;;;;;;;;;;;;;;;5051284;28;1513;-71
2022/05/08 17:53:05;;;;;;;;;;;;;;;;;;5042510;28;1422;-71
2022/05/08 17:55:32;;;;;;;;;;;;;;;;;;5047846;28;1433;-71
2022/05/08 17:57:58;;;;;;;;;;;;;;;;;;5046844;28;1405;-71